Time;durP1;ratioP1;P1;durP2;ratioP2;P2;SDS_P1;SDS_P2;PMS_P1;PMS_P2;Temp;Humidity;BMP_temperature;BMP_pressure;BME280_temperature;BME280_humidity;BME280_pressure;Samples;Min_cycle;Max_cycle;Signal;HPM_P1;HPM_P2
2024/02/03 00:00:46;;;;;;;0.30;0.30;;;;;;;9.88;47.43;98190.19;6156915;28;20662;-51
2024/02/03 00:03:49;;;;;;;0.53;0.30;;;;;;;9.78;45.75;98199.50;6155260;28;20289;-49
2024/02/03 00:06:51;;;;;;;0.30;0.30;;;;;;;9.27;50.10;98198.03;6161365;28;20221;-50
2024/02/03 00:09:53;;;;;;;0.37;0.37;;;;;;;9.21;45.77;98198.94;6165521;28;20203;-51
2024/02/03 00:12:58;;;;;;;0.30;0.30;;;;;;;9.44;45.13;98198.25;6140298;28;20726;-48
2024/02/03 00:16:00;;;;;;;0.50;0.40;;;;;;;9.54;44.83;98187.09;6154195;28;20238;-45
2024/02/03 00:19:02;;;;;;;0.47;0.27;;;;;;;9.43;45.25;98171.91;6160994;28;20206;-46
2024/02/03 00:22:05;;;;;;;0.30;0.30;;;;;;;9.50;43.99;98221.31;6163903;28;20552;-44
2024/02/03 00:25:07;;;;;;;2.10;0.50;;;;;;;9.48;45.68;98186.16;6164103;28;20204;-49
2024/02/03 00:28:10;;;;;;;0.30;0.30;;;;;;;9.59;44.05;98213.03;6162114;28;20816;-45
2024/02/03 00:31:13;;;;;;;0.60;0.57;;;;;;;9.44;44.17;98227.50;6163737;28;20292;-47
2024/02/03 00:34:15;;;;;;;0.30;0.30;;;;;;;9.59;43.85;98221.81;6160093;28;20675;-45
2024/02/03 00:37:18;;;;;;;1.70;0.40;;;;;;;9.58;44.25;98230.84;6164735;28;20195;-51
2024/02/03 00:40:20;;;;;;;0.47;0.47;;;;;;;9.44;45.61;98206.22;6159631;28;20230;-46
2024/02/03 00:43:22;;;;;;;0.37;0.30;;;;;;;9.27;46.57;98211.34;6163838;28;20210;-49
2024/02/03 00:46:24;;;;;;;0.53;0.40;;;;;;;9.09;47.01;98210.50;6150040;28;20210;-47
2024/02/03 00:49:26;;;;;;;0.50;0.50;;;;;;;8.91;46.86;98196.13;6142202;28;20239;-45
2024/02/03 00:52:29;;;;;;;0.30;0.30;;;;;;;8.99;47.41;98227.75;6166128;28;20657;-46
2024/02/03 00:55:31;;;;;;;0.40;0.40;;;;;;;9.04;47.24;98227.09;6161788;28;20198;-46
2024/02/03 00:58:33;;;;;;;0.60;0.40;;;;;;;9.00;48.28;98226.69;6160108;28;20659;-46
2024/02/03 01:01:35;;;;;;;0.50;0.40;;;;;;;9.45;46.04;98230.97;6155925;28;20214;-46
2024/02/03 01:04:37;;;;;;;0.60;0.40;;;;;;;9.26;47.43;98227.47;6164033;28;20210;-46
2024/02/03 01:07:40;;;;;;;0.50;0.50;;;;;;;9.28;47.22;98222.78;6167952;28;20201;-47
2024/02/03 01:10:42;;;;;;;0.60;0.53;;;;;;;9.26;48.08;98243.44;6157773;28;20208;-46
2024/02/03 01:13:45;;;;;;;0.30;0.30;;;;;;;9.16;49.21;98259.91;6166505;28;20282;-46
2024/02/03 01:16:48;;;;;;;0.50;0.50;;;;;;;9.18;49.92;98243.75;6163088;28;20782;-47
2024/02/03 01:19:51;;;;;;;0.40;0.40;;;;;;;9.09;50.43;98243.19;6154936;28;20193;-47
2024/02/03 01:22:53;;;;;;;1.17;0.60;;;;;;;9.18;50.48;98267.66;6156818;28;20579;-48
2024/02/03 01:25:55;;;;;;;0.40;0.40;;;;;;;9.43;50.89;98279.06;6160541;28;20211;-46
2024/02/03 01:28:57;;;;;;;1.37;0.50;;;;;;;9.04;54.00;98262.44;6166958;28;20516;-47
2024/02/03 01:32:00;;;;;;;0.50;0.50;;;;;;;9.09;53.80;98279.59;6164461;28;20193;-45
2024/02/03 01:35:04;;;;;;;2.17;0.67;;;;;;;8.85;54.68;98244.81;6148982;28;20705;-44
2024/02/03 01:38:06;;;;;;;0.53;0.50;;;;;;;8.95;54.18;98282.34;6162194;28;20737;-45
2024/02/03 01:41:08;;;;;;;0.60;0.60;;;;;;;8.92;54.55;98287.31;6168931;28;20213;-44
2024/02/03 01:44:10;;;;;;;1.33;0.70;;;;;;;9.04;54.68;98285.56;6141832;28;20262;-46
2024/02/03 01:47:13;;;;;;;0.60;0.50;;;;;;;8.90;55.70;98290.16;6161746;28;20217;-46
2024/02/03 01:50:16;;;;;;;1.23;0.70;;;;;;;8.81;56.18;98299.41;6161072;28;20240;-45
2024/02/03 01:53:18;;;;;;;0.70;0.70;;;;;;;8.79;56.21;98289.00;6156487;28;20205;-46
2024/02/03 01:56:22;;;;;;;0.90;0.60;;;;;;;8.90;56.31;98274.22;6165390;28;20290;-48
2024/02/03 01:59:27;;;;;;;0.70;0.70;;;;;;;8.81;56.04;98272.84;6160095;28;20201;-46
2024/02/03 02:02:30;;;;;;;0.70;0.60;;;;;;;8.85;55.71;98283.88;6156272;28;20574;-47
2024/02/03 02:05:32;;;;;;;0.70;0.70;;;;;;;8.65;56.41;98263.56;6164402;28;20210;-47
2024/02/03 02:08:36;;;;;;;2.00;0.70;;;;;;;8.46;56.75;98253.88;6165660;28;20190;-46
2024/02/03 02:11:38;;;;;;;0.80;0.70;;;;;;;8.35;56.56;98243.91;6164631;28;20733;-49
2024/02/03 02:14:40;;;;;;;1.13;0.70;;;;;;;8.41;56.35;98273.09;6163137;28;20338;-47
2024/02/03 02:17:43;;;;;;;0.80;0.80;;;;;;;8.25;57.60;98255.00;6142566;28;20265;-48
2024/02/03 02:20:45;;;;;;;2.87;0.73;;;;;;;8.22;57.70;98245.59;6162267;28;20721;-49
2024/02/03 02:23:47;;;;;;;0.73;0.73;;;;;;;8.04;58.41;98242.06;6167562;28;20214;-49
2024/02/03 02:26:50;;;;;;;0.83;0.80;;;;;;;8.10;58.86;98243.84;6158579;28;20213;-47
2024/02/03 02:29:52;;;;;;;1.03;0.73;;;;;;;7.97;60.73;98265.94;6160087;28;20190;-47
2024/02/03 02:32:54;;;;;;;0.90;0.70;;;;;;;7.98;58.92;98260.44;6153867;28;20205;-46
2024/02/03 02:35:57;;;;;;;0.93;0.60;;;;;;;7.92;60.91;98242.69;6149987;28;20205;-51
2024/02/03 02:38:59;;;;;;;0.63;0.63;;;;;;;7.78;61.85;98254.38;6161457;28;20210;-48
2024/02/03 02:42:01;;;;;;;0.83;0.60;;;;;;;7.55;63.23;98248.75;6156688;28;20213;-45
2024/02/03 02:45:04;;;;;;;0.97;0.80;;;;;;;7.80;59.91;98254.19;6158751;28;20209;-45
2024/02/03 02:48:06;;;;;;;1.07;0.80;;;;;;;7.84;61.01;98250.09;6158252;28;20190;-47
2024/02/03 02:51:09;;;;;;;0.87;0.80;;;;;;;7.82;61.41;98250.28;6152886;28;20246;-45
2024/02/03 02:54:11;;;;;;;0.80;0.80;;;;;;;7.85;59.69;98255.19;6152925;28;20217;-48
2024/02/03 02:57:13;;;;;;;0.70;0.70;;;;;;;7.71;60.13;98232.38;6159735;28;20575;-46
2024/02/03 03:00:15;;;;;;;0.70;0.70;;;;;;;7.86;59.91;98250.69;6155523;28;20305;-47
2024/02/03 03:03:17;;;;;;;1.23;0.77;;;;;;;7.79;60.34;98252.56;6153411;28;20206;-47
2024/02/03 03:06:20;;;;;;;0.83;0.80;;;;;;;7.95;59.75;98252.91;6159604;28;20212;-47
2024/02/03 03:09:23;;;;;;;1.10;1.00;;;;;;;7.81;60.92;98255.81;6163617;28;20533;-45
2024/02/03 03:12:25;;;;;;;0.93;0.70;;;;;;;7.61;61.81;98254.03;6152320;28;20205;-47
2024/02/03 03:15:27;;;;;;;0.80;0.80;;;;;;;7.56;62.60;98255.69;6164348;28;20202;-44
2024/02/03 03:18:29;;;;;;;0.90;0.53;;;;;;;7.50;63.04;98260.81;6162548;28;20288;-48
2024/02/03 03:21:32;;;;;;;1.07;0.70;;;;;;;7.22;64.70;98263.69;6165984;28;20198;-46
2024/02/03 03:24:34;;;;;;;1.73;0.73;;;;;;;7.03;64.53;98250.47;6160378;28;20198;-45
2024/02/03 03:27:37;;;;;;;1.13;0.87;;;;;;;7.22;64.23;98270.84;6166397;28;20208;-47
2024/02/03 03:30:39;;;;;;;0.77;0.73;;;;;;;7.17;65.52;98274.09;6162198;28;20697;-49
2024/02/03 03:33:41;;;;;;;0.73;0.70;;;;;;;7.32;63.89;98281.81;6157195;28;20670;-46
2024/02/03 03:36:43;;;;;;;1.13;0.90;;;;;;;7.10;65.52;98288.38;6156852;28;20268;-45
2024/02/03 03:39:48;;;;;;;0.87;0.70;;;;;;;6.68;67.76;98285.09;6162768;28;20728;-49
2024/02/03 03:42:51;;;;;;;0.90;0.73;;;;;;;6.72;67.46;98300.38;6166416;28;20209;-49
2024/02/03 03:45:53;;;;;;;1.17;0.90;;;;;;;7.19;65.42;98305.69;6156651;28;20220;-47
2024/02/03 03:48:55;;;;;;;1.67;0.90;;;;;;;7.27;64.38;98305.47;6164049;28;20712;-48
2024/02/03 03:52:01;;;;;;;2.00;1.20;;;;;;;7.08;65.54;98293.88;6162674;28;20336;-47
2024/02/03 03:55:03;;;;;;;1.30;0.93;;;;;;;7.04;66.16;98305.88;6162960;28;20199;-49
2024/02/03 03:58:05;;;;;;;1.20;0.80;;;;;;;6.98;66.87;98312.00;6161609;28;20193;-49
2024/02/03 04:01:10;;;;;;;1.60;1.20;;;;;;;6.82;67.60;98321.16;6157764;28;20201;-49
2024/02/03 04:04:13;;;;;;;1.23;0.90;;;;;;;6.90;67.55;98333.41;6137191;28;20194;-46
2024/02/03 04:07:15;;;;;;;1.93;1.10;;;;;;;6.90;67.68;98334.22;6158029;28;20326;-47
2024/02/03 04:10:17;;;;;;;1.00;0.90;;;;;;;7.14;67.62;98337.25;6158201;28;20207;-49
2024/02/03 04:13:20;;;;;;;1.37;1.10;;;;;;;7.10;67.39;98317.53;6153288;28;20678;-47
2024/02/03 04:16:22;;;;;;;0.97;0.87;;;;;;;7.30;66.88;98328.94;6161242;28;20201;-45
2024/02/03 04:19:24;;;;;;;1.77;1.17;;;;;;;7.43;66.35;98333.38;6163005;28;20206;-46
2024/02/03 04:22:26;;;;;;;2.47;1.33;;;;;;;7.39;66.23;98313.59;6160831;28;20205;-45
2024/02/03 04:25:28;;;;;;;1.73;1.27;;;;;;;7.20;67.48;98320.59;6155479;28;20214;-50
2024/02/03 04:28:30;;;;;;;1.30;1.20;;;;;;;7.03;68.76;98322.00;6160696;28;20285;-48
2024/02/03 04:31:32;;;;;;;1.40;1.00;;;;;;;7.18;67.86;98315.47;6160555;28;20193;-45
2024/02/03 04:34:34;;;;;;;1.17;1.07;;;;;;;7.37;67.13;98336.88;6166459;28;20201;-50
2024/02/03 04:37:37;;;;;;;1.57;1.30;;;;;;;7.17;67.89;98327.09;6168691;28;20674;-50
2024/02/03 04:40:39;;;;;;;1.23;1.13;;;;;;;6.85;70.24;98328.72;6166184;28;20701;-48
2024/02/03 04:43:41;;;;;;;1.93;1.13;;;;;;;6.72;70.46;98336.63;6164253;28;20544;-45
2024/02/03 04:46:43;;;;;;;2.37;1.27;;;;;;;7.04;69.38;98339.50;6157849;28;20220;-46
2024/02/03 04:49:49;;;;;;;1.57;1.47;;;;;;;7.22;68.01;98339.72;6158496;28;20750;-47
2024/02/03 04:52:51;;;;;;;2.73;1.30;;;;;;;7.32;67.00;98336.66;6162031;28;20281;-50
2024/02/03 04:55:53;;;;;;;1.10;1.00;;;;;;;7.12;68.65;98339.31;6158288;28;20686;-46
2024/02/03 04:58:56;;;;;;;1.63;1.17;;;;;;;7.12;68.75;98339.31;6166498;28;20195;-47
2024/02/03 05:01:58;;;;;;;1.53;1.27;;;;;;;6.98;68.66;98326.06;6154315;28;20332;-45
2024/02/03 05:05:00;;;;;;;2.53;1.07;;;;;;;6.96;69.15;98348.47;6164777;28;20639;-45
2024/02/03 05:08:02;;;;;;;1.20;1.07;;;;;;;7.18;67.74;98339.31;6157970;28;20217;-48
2024/02/03 05:11:04;;;;;;;1.37;1.23;;;;;;;7.02;68.73;98342.38;6162139;28;20199;-51
2024/02/03 05:14:07;;;;;;;1.23;0.93;;;;;;;6.80;69.64;98333.78;6166470;28;20681;-49
2024/02/03 05:17:09;;;;;;;1.73;1.30;;;;;;;6.87;69.57;98323.19;6162477;28;20631;-51
2024/02/03 05:20:11;;;;;;;1.50;1.20;;;;;;;6.87;69.31;98333.78;6160202;28;20189;-49
2024/02/03 05:23:13;;;;;;;2.53;1.20;;;;;;;6.91;69.49;98335.84;6164300;28;20587;-45
2024/02/03 05:26:15;;;;;;;1.30;1.10;;;;;;;6.66;70.75;98348.84;6163235;28;20576;-47
2024/02/03 05:29:17;;;;;;;1.97;1.20;;;;;;;7.03;68.35;98349.28;6168238;28;20209;-47
2024/02/03 05:32:19;;;;;;;1.53;1.23;;;;;;;6.96;69.10;98337.88;6163201;28;20201;-49
2024/02/03 05:35:21;;;;;;;1.40;0.87;;;;;;;6.83;69.86;98353.75;6169475;28;20196;-46
2024/02/03 05:38:24;;;;;;;2.00;1.13;;;;;;;6.39;72.46;98347.91;6152780;28;20654;-46
2024/02/03 05:41:26;;;;;;;1.10;1.00;;;;;;;6.43;72.11;98353.66;6161888;28;20201;-46
2024/02/03 05:44:28;;;;;;;3.37;1.73;;;;;;;6.73;69.48;98325.81;6160273;28;20208;-46
2024/02/03 05:47:30;;;;;;;2.70;1.27;;;;;;;6.98;68.15;98347.25;6158272;28;20260;-48
2024/02/03 05:50:32;;;;;;;1.43;1.07;;;;;;;7.06;67.36;98306.50;6167613;28;20360;-46
2024/02/03 05:53:35;;;;;;;1.20;1.10;;;;;;;7.28;65.91;98335.44;6159998;28;20288;-45
2024/02/03 05:56:37;;;;;;;1.23;1.13;;;;;;;7.22;66.81;98342.38;6164457;28;20205;-45
2024/02/03 05:59:46;;;;;;;1.60;1.20;;;;;;;7.38;65.73;98315.44;6154114;28;20679;-47
2024/02/03 06:02:52;;;;;;;2.67;1.27;;;;;;;7.28;65.50;98315.06;6159971;28;20658;-46
2024/02/03 06:05:54;;;;;;;2.03;1.10;;;;;;;7.22;65.54;98300.78;6162525;28;20217;-48
2024/02/03 06:09:17;;;;;;;1.37;1.10;;;;;;;7.22;65.53;98297.34;6160325;28;20198;-48
2024/02/03 06:12:19;;;;;;;1.20;1.10;;;;;;;7.35;65.36;98318.53;6154096;28;20206;-47
2024/02/03 06:15:21;;;;;;;2.03;1.10;;;;;;;7.35;65.26;98333.63;6152485;28;20654;-48
2024/02/03 06:18:23;;;;;;;2.30;1.00;;;;;;;7.34;64.59;98316.91;6157304;28;20200;-45
2024/02/03 06:21:27;;;;;;;2.10;1.20;;;;;;;7.22;65.44;98310.56;6155043;28;20256;-49
2024/02/03 06:24:31;;;;;;;1.30;1.20;;;;;;;7.31;65.14;98305.91;6164898;28;20227;-44
2024/02/03 06:27:33;;;;;;;1.57;1.20;;;;;;;7.32;65.17;98334.84;6157449;28;20243;-45
2024/02/03 06:30:35;;;;;;;1.20;1.10;;;;;;;7.42;64.31;98329.13;6159567;28;20217;-47
2024/02/03 06:33:37;;;;;;;1.80;1.20;;;;;;;7.35;65.25;98310.56;6156339;28;20249;-49
2024/02/03 06:36:40;;;;;;;1.60;1.10;;;;;;;7.35;64.95;98275.31;6160363;28;20683;-49
2024/02/03 06:39:42;;;;;;;2.37;1.30;;;;;;;7.36;65.21;98330.75;6159174;28;20575;-50
2024/02/03 06:42:45;;;;;;;2.90;1.10;;;;;;;7.31;64.76;98341.16;6163280;28;20204;-47
2024/02/03 06:45:47;;;;;;;1.53;1.23;;;;;;;7.31;65.08;98351.75;6161744;28;20201;-45
2024/02/03 06:48:50;;;;;;;1.60;1.33;;;;;;;7.25;65.10;98363.19;6164104;28;20670;-46
2024/02/03 06:51:53;;;;;;;1.80;1.27;;;;;;;7.26;65.66;98370.09;6156793;28;20536;-48
2024/02/03 06:54:55;;;;;;;1.80;1.30;;;;;;;7.22;65.46;98374.19;6167467;28;20199;-46
2024/02/03 06:57:57;;;;;;;1.30;1.17;;;;;;;7.14;65.57;98377.00;6161722;28;20430;-50
2024/02/03 07:00:59;;;;;;;2.67;1.23;;;;;;;7.11;65.65;98388.84;6163621;28;20209;-50
2024/02/03 07:04:06;;;;;;;1.77;1.30;;;;;;;7.19;65.42;98398.41;6145587;28;20661;-47
2024/02/03 07:07:08;;;;;;;3.57;1.70;;;;;;;7.14;66.01;98404.34;6163332;28;20727;-49
2024/02/03 07:10:10;;;;;;;2.70;1.47;;;;;;;6.88;67.50;98397.16;6165911;28;20228;-47
2024/02/03 07:13:13;;;;;;;1.57;1.10;;;;;;;7.05;66.29;98413.50;6161502;28;20832;-46
2024/02/03 07:16:15;;;;;;;1.83;1.47;;;;;;;6.98;66.87;98429.34;6164644;28;20686;-47
2024/02/03 07:19:17;;;;;;;2.00;1.37;;;;;;;7.13;66.35;98415.94;6159098;28;20657;-47
2024/02/03 07:22:20;;;;;;;1.77;1.33;;;;;;;6.95;67.16;98419.19;6160855;28;20621;-46
2024/02/03 07:25:23;;;;;;;2.00;1.40;;;;;;;7.12;66.92;98416.97;6161321;28;20292;-50
2024/02/03 07:28:25;;;;;;;1.90;1.30;;;;;;;6.98;68.15;98421.41;6154005;28;20311;-50
2024/02/03 07:31:28;;;;;;;2.60;1.50;;;;;;;7.11;67.34;98439.19;6156394;28;20628;-47
2024/02/03 07:34:30;;;;;;;1.43;1.20;;;;;;;7.15;67.23;98419.22;6160832;28;20828;-50
2024/02/03 07:37:33;;;;;;;2.10;1.57;;;;;;;7.28;66.65;98415.75;6155387;28;20207;-48
2024/02/03 07:40:35;;;;;;;1.77;1.57;;;;;;;7.24;67.24;98409.22;6161104;28;20743;-46
2024/02/03 07:43:37;;;;;;;1.93;1.40;;;;;;;7.22;66.59;98398.84;6159936;28;20204;-48
2024/02/03 07:46:39;;;;;;;3.00;1.43;;;;;;;7.38;66.54;98384.38;6164295;28;20198;-51
2024/02/03 07:49:42;;;;;;;1.87;1.67;;;;;;;7.37;66.57;98337.69;6156135;28;20234;-45
2024/02/03 07:52:44;;;;;;;2.77;1.70;;;;;;;7.35;66.68;98382.13;6156825;28;20202;-47
2024/02/03 07:55:46;;;;;;;1.97;1.40;;;;;;;7.52;66.70;98379.06;6156859;28;20658;-49
2024/02/03 07:58:50;;;;;;;2.27;1.50;;;;;;;7.46;67.18;98394.78;6161011;28;20678;-47
2024/02/03 08:01:53;;;;;;;2.00;1.70;;;;;;;7.42;67.66;98398.03;6161846;28;20196;-48
2024/02/03 08:04:55;;;;;;;1.43;1.30;;;;;;;7.59;67.15;98403.75;6160530;28;20199;-48
2024/02/03 08:07:57;;;;;;;2.77;1.63;;;;;;;7.50;68.64;98396.00;6151841;28;20214;-47
2024/02/03 08:10:59;;;;;;;1.50;1.40;;;;;;;7.46;69.76;98423.13;6143694;28;20710;-50
2024/02/03 08:14:01;;;;;;;1.67;1.57;;;;;;;7.73;69.09;98413.31;6152472;28;20726;-47
2024/02/03 08:17:03;;;;;;;2.33;1.80;;;;;;;7.70;69.82;98432.31;6158915;28;20202;-48
2024/02/03 08:20:06;;;;;;;1.43;1.33;;;;;;;7.62;71.32;98422.72;6164705;28;20580;-47
2024/02/03 08:23:11;;;;;;;2.40;1.60;;;;;;;7.69;71.24;98425.38;6153915;28;20285;-48
2024/02/03 08:26:13;;;;;;;1.93;1.53;;;;;;;7.72;71.86;98433.72;6151453;28;20209;-46
2024/02/03 08:29:15;;;;;;;2.77;1.87;;;;;;;7.86;71.60;98421.28;6164580;28;20539;-46
2024/02/03 08:32:17;;;;;;;2.70;2.30;;;;;;;7.79;73.30;98433.72;6159597;28;20193;-50
2024/02/03 08:35:19;;;;;;;1.80;1.70;;;;;;;7.84;72.56;98422.50;6163534;28;20207;-49
2024/02/03 08:38:22;;;;;;;1.67;1.47;;;;;;;7.79;73.29;98427.63;6157854;28;20198;-48
2024/02/03 08:41:24;;;;;;;2.33;1.87;;;;;;;7.87;72.94;98417.59;6163581;28;20677;-46
2024/02/03 08:44:26;;;;;;;2.10;1.70;;;;;;;7.94;74.04;98421.06;6153499;28;20194;-48
2024/02/03 08:47:28;;;;;;;2.90;2.07;;;;;;;8.00;73.86;98438.00;6148377;28;20572;-48
2024/02/03 08:50:31;;;;;;;1.43;1.30;;;;;;;8.11;72.70;98449.81;6156979;28;20241;-50
2024/02/03 08:53:33;;;;;;;2.10;1.60;;;;;;;8.13;72.71;98434.50;6151677;28;20198;-47
2024/02/03 08:56:35;;;;;;;3.00;1.77;;;;;;;8.22;71.58;98423.44;6144272;28;20200;-46
2024/02/03 08:59:37;;;;;;;1.80;1.70;;;;;;;8.34;71.74;98434.25;6157359;28;20208;-48
2024/02/03 09:02:39;;;;;;;2.20;2.00;;;;;;;8.50;70.49;98411.75;6165802;28;20214;-48
2024/02/03 09:05:41;;;;;;;1.90;1.67;;;;;;;8.48;70.29;98419.94;6160397;28;20203;-47
2024/02/03 09:08:43;;;;;;;2.27;1.97;;;;;;;8.64;69.30;98431.94;6163914;28;20576;-44
2024/02/03 09:11:45;;;;;;;1.93;1.60;;;;;;;8.81;71.29;98436.75;6159986;28;20654;-47
2024/02/03 09:14:47;;;;;;;3.50;1.90;;;;;;;8.86;69.14;98431.59;6157667;28;20682;-48
2024/02/03 09:17:50;;;;;;;2.07;1.80;;;;;;;8.75;69.95;98430.44;6160290;28;20570;-49
2024/02/03 09:20:52;;;;;;;2.70;1.60;;;;;;;8.76;69.55;98418.78;6162490;28;20268;-47
2024/02/03 09:23:54;;;;;;;1.90;1.70;;;;;;;8.82;69.76;98438.38;6170019;28;20782;-47
2024/02/03 09:26:56;;;;;;;2.50;2.30;;;;;;;8.81;69.45;98421.63;6164232;28;20215;-48
2024/02/03 09:29:58;;;;;;;2.03;1.80;;;;;;;8.86;69.71;98429.78;6161152;28;20216;-47
2024/02/03 09:33:01;;;;;;;2.10;1.90;;;;;;;8.91;69.41;98432.59;6154511;28;20194;-47
2024/02/03 09:36:04;;;;;;;2.67;2.20;;;;;;;8.58;70.45;98434.63;6156115;28;20212;-46
2024/02/03 09:39:07;;;;;;;2.30;2.10;;;;;;;8.49;71.43;98444.66;6163147;28;20190;-48
2024/02/03 09:42:09;;;;;;;2.17;1.97;;;;;;;8.63;71.19;98448.06;6162376;28;20199;-46
2024/02/03 09:45:12;;;;;;;2.60;2.03;;;;;;;8.63;71.42;98458.69;6160767;28;20213;-49
2024/02/03 09:48:14;;;;;;;2.20;2.00;;;;;;;8.60;71.19;98441.34;6158555;28;20253;-47
2024/02/03 09:51:16;;;;;;;2.53;2.30;;;;;;;8.55;72.11;98440.34;6167093;28;20695;-49
2024/02/03 09:54:19;;;;;;;2.20;1.93;;;;;;;8.44;72.39;98453.25;6154555;28;20214;-48
2024/02/03 09:57:22;;;;;;;2.40;2.20;;;;;;;8.63;72.12;98438.25;6161520;28;20205;-48
2024/02/03 10:00:25;;;;;;;2.43;2.00;;;;;;;8.50;71.93;98440.97;6165211;28;20244;-48
2024/02/03 10:03:28;;;;;;;2.33;1.67;;;;;;;8.71;72.84;98437.19;6160667;28;20210;-50
2024/02/03 10:06:30;;;;;;;2.60;2.10;;;;;;;8.71;71.54;98442.50;6158626;28;20206;-50
2024/02/03 10:09:35;;;;;;;4.13;2.23;;;;;;;8.61;72.47;98436.84;6158518;28;20204;-47
2024/02/03 10:12:39;;;;;;;2.40;2.00;;;;;;;8.87;71.83;98422.63;6152890;28;20878;-49
2024/02/03 10:15:42;;;;;;;2.10;1.90;;;;;;;8.57;72.42;98435.63;6154235;28;20212;-50
2024/02/03 10:18:44;;;;;;;2.03;1.70;;;;;;;8.52;72.37;98425.63;6162025;28;20709;-49
2024/02/03 10:21:46;;;;;;;2.30;1.87;;;;;;;8.48;73.08;98425.25;6157710;28;20249;-49
2024/02/03 10:24:49;;;;;;;3.00;2.30;;;;;;;8.42;74.09;98438.53;6163756;28;20199;-51
2024/02/03 10:28:05;;;;;;;2.80;2.33;;;;;;;8.37;74.75;98448.97;6167105;28;20357;-50
2024/02/03 10:31:07;;;;;;;2.33;2.13;;;;;;;8.33;74.64;98413.22;6156259;28;20242;-47
2024/02/03 10:34:10;;;;;;;2.40;2.10;;;;;;;8.43;74.42;98400.34;6163594;28;20228;-47
2024/02/03 10:37:12;;;;;;;2.80;2.20;;;;;;;8.74;72.68;98407.56;6153350;28;20647;-47
2024/02/03 10:40:16;;;;;;;3.23;2.63;;;;;;;8.64;72.99;98401.91;6163838;28;20183;-50
2024/02/03 10:43:22;;;;;;;3.33;2.10;;;;;;;8.79;71.89;98405.09;6160219;28;20901;-49
2024/02/03 10:46:24;;;;;;;2.73;2.30;;;;;;;8.71;73.32;98392.03;6159767;28;20198;-48
2024/02/03 10:49:32;;;;;;;2.37;1.93;;;;;;;8.82;72.76;98410.00;6166667;28;21025;-47
2024/02/03 10:52:35;;;;;;;2.27;1.80;;;;;;;8.97;72.02;98423.81;6161881;28;20191;-48
2024/02/03 10:55:41;;;;;;;2.03;1.80;;;;;;;8.99;71.69;98403.13;6160831;28;20206;-47
2024/02/03 10:58:43;;;;;;;2.23;1.83;;;;;;;9.13;71.42;98411.03;6166567;28;20190;-47
2024/02/03 11:01:45;;;;;;;2.27;1.77;;;;;;;9.12;72.00;98374.84;6161391;28;20197;-47
2024/02/03 11:04:49;;;;;;;2.33;2.03;;;;;;;9.08;70.89;98397.56;6167345;28;20728;-46
2024/02/03 11:07:51;;;;;;;3.13;2.00;;;;;;;9.22;72.91;98378.66;6164132;28;20212;-48
2024/02/03 11:10:53;;;;;;;2.90;1.90;;;;;;;9.14;71.36;98373.59;6165833;28;20187;-47
2024/02/03 11:13:57;;;;;;;2.10;1.70;;;;;;;9.22;71.35;98393.81;6163150;28;20198;-48
2024/02/03 11:17:04;;;;;;;2.47;2.10;;;;;;;9.04;72.38;98390.00;6163229;28;20675;-48
2024/02/03 11:20:18;;;;;;;1.60;1.50;;;;;;;8.97;72.77;98346.75;6158694;28;20270;-46
2024/02/03 11:23:25;;;;;;;2.87;2.07;;;;;;;9.23;72.59;98371.50;6154589;28;20715;-49
2024/02/03 11:26:29;;;;;;;2.13;1.70;;;;;;;9.12;72.33;98358.91;6157604;28;20659;-48
2024/02/03 11:29:31;;;;;;;2.00;1.63;;;;;;;9.30;71.85;98357.09;6160477;28;20214;-47
2024/02/03 11:32:33;;;;;;;1.90;1.70;;;;;;;9.38;71.61;98364.00;6159240;28;20206;-46
2024/02/03 11:35:36;;;;;;;2.23;1.57;;;;;;;9.30;72.29;98350.97;6160468;28;20240;-47
2024/02/03 11:38:45;;;;;;;2.43;1.83;;;;;;;9.44;71.86;98343.72;6161800;28;20417;-46
2024/02/03 11:41:47;;;;;;;2.27;1.73;;;;;;;9.60;71.21;98326.38;6157437;28;20256;-49
2024/02/03 11:44:57;;;;;;;2.23;1.90;;;;;;;9.65;71.51;98350.47;6159782;28;20313;-47
2024/02/03 11:48:02;;;;;;;1.47;1.23;;;;;;;9.75;71.60;98343.63;6163901;28;20222;-46
2024/02/03 11:51:06;;;;;;;1.93;1.23;;;;;;;9.59;70.23;98330.06;6162105;28;20237;-48
2024/02/03 11:54:08;;;;;;;1.87;1.40;;;;;;;9.53;70.83;98324.59;6162998;28;20851;-45
2024/02/03 11:57:10;;;;;;;1.47;1.30;;;;;;;9.87;71.73;98326.94;6165459;28;20194;-46
2024/02/03 12:00:14;;;;;;;2.53;1.50;;;;;;;9.95;71.43;98310.66;6159551;28;20910;-48
2024/02/03 12:03:16;;;;;;;1.43;1.27;;;;;;;10.11;68.83;98307.41;6159083;28;20194;-47
2024/02/03 12:06:20;;;;;;;3.53;1.10;;;;;;;10.05;69.04;98324.28;6156033;28;20327;-46
2024/02/03 12:09:23;;;;;;;1.90;1.63;;;;;;;9.89;69.69;98312.34;6152943;28;20217;-49
2024/02/03 12:12:25;;;;;;;1.30;1.20;;;;;;;9.94;68.86;98320.50;6152546;28;20215;-47
2024/02/03 12:15:29;;;;;;;1.20;1.10;;;;;;;9.98;68.94;98313.69;6155678;28;20675;-47
2024/02/03 12:18:31;;;;;;;1.53;1.13;;;;;;;9.86;69.82;98307.50;6152846;28;20198;-49
2024/02/03 12:21:34;;;;;;;1.77;1.50;;;;;;;10.08;67.95;98323.81;6158474;28;20219;-49
2024/02/03 12:24:36;;;;;;;1.60;1.30;;;;;;;10.21;67.11;98307.69;6139492;28;20754;-48
2024/02/03 12:27:39;;;;;;;1.47;1.30;;;;;;;10.11;67.67;98319.91;6156053;28;20207;-49
2024/02/03 12:30:41;;;;;;;1.63;1.50;;;;;;;10.01;67.87;98304.47;6155083;28;20276;-46
2024/02/03 12:33:43;;;;;;;1.40;1.10;;;;;;;10.02;67.06;98298.09;6151278;28;20278;-47
2024/02/03 12:36:45;;;;;;;1.27;1.17;;;;;;;9.95;67.52;98292.03;6159586;28;20668;-48
2024/02/03 12:39:47;;;;;;;2.10;1.70;;;;;;;10.03;67.88;98279.22;6158028;28;20337;-48
2024/02/03 12:42:50;;;;;;;1.53;1.40;;;;;;;10.02;67.03;98298.91;6141386;28;20713;-46
2024/02/03 12:45:52;;;;;;;1.70;1.50;;;;;;;9.92;67.01;98290.63;6157718;28;20203;-48
2024/02/03 12:48:54;;;;;;;1.33;1.23;;;;;;;10.06;66.52;98293.97;6163151;28;20795;-46
2024/02/03 12:51:56;;;;;;;2.30;1.50;;;;;;;10.14;66.39;98284.84;6169586;28;20229;-44
2024/02/03 12:54:59;;;;;;;2.57;1.60;;;;;;;10.15;66.34;98292.63;6159390;28;20207;-51
2024/02/03 12:58:01;;;;;;;1.73;1.50;;;;;;;10.01;65.82;98273.34;6164776;28;20218;-58
2024/02/03 13:01:03;;;;;;;1.40;1.20;;;;;;;10.00;67.24;98286.84;6141394;28;20194;-58
2024/02/03 13:04:05;;;;;;;1.83;1.40;;;;;;;10.06;67.07;98283.31;6162807;28;20681;-58
2024/02/03 13:07:08;;;;;;;1.63;1.23;;;;;;;10.00;67.24;98278.84;6167885;28;20208;-60
2024/02/03 13:10:10;;;;;;;1.70;1.53;;;;;;;10.08;67.87;98286.56;6164346;28;20614;-60
2024/02/03 13:13:12;;;;;;;2.63;1.30;;;;;;;10.13;66.76;98283.22;6168848;28;20207;-59
2024/02/03 13:16:15;;;;;;;1.20;1.10;;;;;;;10.00;66.98;98278.84;6163570;28;20280;-60
2024/02/03 13:19:17;;;;;;;1.47;1.37;;;;;;;10.02;66.19;98288.25;6166688;28;20610;-60
2024/02/03 13:22:19;;;;;;;2.13;1.23;;;;;;;10.14;66.06;98285.66;6160601;28;20202;-59
2024/02/03 13:25:23;;;;;;;1.90;1.43;;;;;;;10.02;66.97;98290.94;6164236;28;20572;-59
2024/02/03 13:28:25;;;;;;;1.53;1.30;;;;;;;10.07;66.53;98280.41;6167608;28;20206;-58
2024/02/03 13:31:27;;;;;;;1.80;1.50;;;;;;;10.17;66.67;98297.72;6159283;28;20661;-59
2024/02/03 13:34:29;;;;;;;1.80;1.10;;;;;;;10.11;67.01;98282.66;6163043;28;20629;-60
2024/02/03 13:37:34;;;;;;;2.73;1.00;;;;;;;10.18;66.38;98302.00;6162720;28;20261;-59
2024/02/03 13:40:36;;;;;;;1.27;0.97;;;;;;;10.07;67.48;98311.56;6163737;28;20203;-60
2024/02/03 13:43:38;;;;;;;1.03;0.93;;;;;;;10.06;67.23;98291.31;6168248;28;20200;-60
2024/02/03 13:46:41;;;;;;;1.97;1.07;;;;;;;10.23;66.21;98286.16;6161859;28;20200;-60
2024/02/03 13:49:43;;;;;;;1.63;1.20;;;;;;;10.22;66.27;98296.00;6156963;28;20243;-60
2024/02/03 13:52:45;;;;;;;1.20;1.10;;;;;;;10.08;67.52;98300.69;6158970;28;20194;-60
2024/02/03 13:55:48;;;;;;;1.10;1.00;;;;;;;9.92;68.57;98301.28;6163542;28;20867;-59
2024/02/03 13:58:50;;;;;;;1.50;1.20;;;;;;;10.03;67.54;98303.19;6155191;28;20193;-59
2024/02/03 14:01:52;;;;;;;1.70;1.13;;;;;;;10.00;67.78;98301.00;6163556;28;20206;-59
2024/02/03 14:04:54;;;;;;;1.27;1.17;;;;;;;9.86;68.07;98288.88;6155451;28;20801;-59
2024/02/03 14:07:56;;;;;;;1.87;1.30;;;;;;;9.93;68.18;98288.78;6162516;28;20238;-59
2024/02/03 14:10:58;;;;;;;1.70;1.30;;;;;;;9.75;69.19;98297.56;6164566;28;20204;-59
2024/02/03 14:14:01;;;;;;;1.10;1.00;;;;;;;9.65;69.20;98314.03;6161424;28;20667;-59
2024/02/03 14:17:03;;;;;;;1.73;1.40;;;;;;;9.73;68.68;98313.75;6167781;28;20202;-60
2024/02/03 14:20:07;;;;;;;2.20;1.70;;;;;;;9.73;69.13;98304.97;6155142;28;20758;-59
2024/02/03 14:23:09;;;;;;;1.70;1.30;;;;;;;9.68;69.12;98291.50;6163317;28;20197;-58
2024/02/03 14:26:11;;;;;;;1.50;1.40;;;;;;;9.56;69.32;98278.94;6156013;28;20198;-58
2024/02/03 14:29:14;;;;;;;2.23;1.57;;;;;;;9.56;69.69;98284.28;6158417;28;20588;-59